Portada
METAR-TAF:

METAR-TAF

Aeroports :

William H. Morse State Airport

Bennington, Vermont, Estats Units d'Amèrica

latitud: 42-53-24N, longitud: 073-14-47W, altitud: 252 m

Observació

L'informe es va fer fa 47 minuts, a les 22:54 UTC
Vent calma
Temperatura 0°C
Humitat 51%
Pressió 1028 hPa
Visibilitat: 16.1 km
Cel clar

METAR: KDDH 242254Z AUTO 00000KT 10SM CLR 00/M09 A3036 RMK AO2 SLP289 T00001089

Hora: 18:41 (23:41 UTC)


TAF: manca

Observacions i pronòstics meteorològics de més de 4000 aeroports (METAR i TAF).

Les estacions disponibles són els punts grocs i vermells al mapa.

Posi el ratolí al punt desitjat per veure el nom de l'estació.

Feu clic per veure les observacions i els pronòstics meteorològics.

Per canviar el mapa: feu clic els botons verds amb una creu de color negre per apropar; al botó verd amb un guió per allunyar la imatge; o en les fletxes verdes per a mapes adjacents.


METAR-TAF: